createdAt,value
2022-08-17T00:00:15.748Z,100.00
2022-08-17T00:03:15.214Z,100.00
2022-08-17T00:05:51.963Z,100.00
2022-08-17T00:08:22.042Z,100.00
2022-08-17T00:10:49.981Z,100.00
2022-08-17T00:13:39.048Z,100.00
2022-08-17T00:16:53.476Z,100.00
2022-08-17T00:19:22.978Z,100.00
2022-08-17T00:22:32.676Z,100.00
2022-08-17T00:24:39.091Z,100.00
2022-08-17T00:27:05.862Z,100.00
2022-08-17T00:29:32.592Z,100.00
2022-08-17T00:31:59.428Z,100.00
2022-08-17T00:34:27.924Z,100.00
2022-08-17T00:36:54.941Z,100.00
2022-08-17T00:39:21.758Z,100.00
2022-08-17T00:41:48.631Z,100.00
2022-08-17T00:44:16.568Z,100.00
2022-08-17T00:46:44.672Z,100.00
2022-08-17T00:49:13.407Z,100.00
2022-08-17T00:52:11.769Z,100.00
2022-08-17T00:54:42.575Z,100.00
2022-08-17T00:57:15.872Z,100.00
2022-08-17T01:00:01.527Z,100.00
2022-08-17T01:02:34.909Z,100.00
2022-08-17T01:05:18.623Z,100.00
2022-08-17T01:07:47.980Z,100.00
2022-08-17T01:10:59.360Z,100.00
2022-08-17T01:13:04.966Z,100.00
2022-08-17T01:15:36.172Z,100.00
2022-08-17T01:18:05.618Z,100.00
2022-08-17T01:20:43.143Z,100.00
2022-08-17T01:23:20.485Z,100.00
2022-08-17T01:25:54.419Z,100.00
2022-08-17T01:28:36.498Z,100.00
2022-08-17T01:31:10.601Z,100.00
2022-08-17T01:33:37.731Z,100.00
2022-08-17T01:36:07.379Z,100.00
2022-08-17T01:38:38.534Z,100.00
2022-08-17T01:41:13.875Z,100.00
2022-08-17T01:43:54.710Z,100.00
2022-08-17T01:46:26.612Z,100.00
2022-08-17T01:48:54.188Z,100.00
2022-08-17T01:51:21.409Z,100.00
2022-08-17T01:53:52.477Z,100.00
2022-08-17T01:56:23.310Z,100.00
2022-08-17T01:58:51.205Z,100.00
2022-08-17T02:01:27.211Z,100.00
2022-08-17T02:04:00.882Z,100.00
2022-08-17T02:06:45.294Z,100.00
2022-08-17T02:09:25.168Z,100.00
2022-08-17T02:11:54.188Z,100.00
2022-08-17T02:14:21.168Z,100.00
2022-08-17T02:16:47.931Z,100.00
2022-08-17T02:19:16.390Z,100.00
2022-08-17T02:21:46.085Z,100.00
2022-08-17T02:25:00.953Z,100.00
2022-08-17T02:27:07.902Z,100.00
2022-08-17T02:29:34.650Z,100.00
2022-08-17T02:32:01.999Z,100.00
2022-08-17T02:34:30.141Z,100.00
2022-08-17T02:36:57.007Z,100.00
2022-08-17T02:39:24.047Z,100.00
2022-08-17T02:42:00.022Z,100.00
2022-08-17T02:44:39.662Z,100.00
2022-08-17T02:47:09.069Z,100.00
2022-08-17T02:49:36.167Z,100.00
2022-08-17T02:52:05.154Z,100.00
2022-08-17T02:54:41.233Z,100.00
2022-08-17T02:57:10.337Z,100.00
2022-08-17T02:59:38.401Z,100.00
2022-08-17T03:02:07.940Z,100.00
2022-08-17T03:04:35.212Z,100.00
2022-08-17T03:07:03.176Z,100.00
2022-08-17T03:09:30.104Z,100.00
2022-08-17T03:12:06.042Z,100.00
2022-08-17T03:14:32.779Z,100.00
2022-08-17T03:16:59.507Z,100.00
2022-08-17T03:19:26.569Z,100.00
2022-08-17T03:21:54.875Z,100.00
2022-08-17T03:24:25.168Z,100.00
2022-08-17T03:26:55.871Z,100.00
2022-08-17T03:29:22.771Z,100.00
2022-08-17T03:31:50.248Z,100.00
2022-08-17T03:34:17.349Z,100.00
2022-08-17T03:36:44.620Z,100.00
2022-08-17T03:39:11.420Z,100.00
2022-08-17T03:41:39.271Z,100.00
2022-08-17T03:44:06.199Z,100.00
2022-08-17T03:46:51.706Z,100.00
2022-08-17T03:49:56.983Z,100.00
2022-08-17T03:52:42.214Z,100.00
2022-08-17T03:55:29.466Z,100.00
2022-08-17T03:58:03.303Z,100.00
2022-08-17T04:00:30.092Z,100.00
2022-08-17T04:02:57.638Z,100.00
2022-08-17T04:05:24.431Z,100.00
2022-08-17T04:07:52.004Z,100.00
2022-08-17T04:10:18.898Z,100.00
2022-08-17T04:12:53.100Z,100.00
2022-08-17T04:15:20.091Z,100.00
2022-08-17T04:17:47.651Z,100.00
2022-08-17T04:20:17.259Z,100.00
2022-08-17T04:23:11.130Z,100.00
2022-08-17T04:25:42.207Z,100.00
2022-08-17T04:28:15.884Z,100.00
2022-08-17T04:30:45.644Z,100.00
2022-08-17T04:33:20.616Z,100.00
2022-08-17T04:35:53.297Z,100.00
2022-08-17T04:38:24.620Z,100.00
2022-08-17T04:41:13.491Z,100.00
2022-08-17T04:43:42.267Z,100.00
2022-08-17T04:46:18.453Z,100.00
2022-08-17T04:48:49.323Z,100.00
2022-08-17T04:51:20.356Z,100.00
2022-08-17T04:53:54.147Z,100.00
2022-08-17T04:56:26.053Z,100.00
2022-08-17T04:58:57.111Z,100.00
2022-08-17T05:01:26.170Z,100.00
2022-08-17T05:03:59.338Z,100.00
2022-08-17T05:06:27.775Z,100.00
2022-08-17T05:08:55.621Z,100.00
2022-08-17T05:11:23.191Z,100.00
2022-08-17T05:13:50.509Z,100.00
2022-08-17T05:16:19.028Z,100.00
2022-08-17T05:18:46.599Z,100.00
2022-08-17T05:21:14.660Z,100.00
2022-08-17T05:23:43.507Z,100.00
2022-08-17T05:26:25.778Z,100.00
2022-08-17T05:29:03.114Z,100.00
2022-08-17T05:31:30.688Z,100.00
2022-08-17T05:33:57.973Z,100.00
2022-08-17T05:36:41.933Z,100.00
2022-08-17T05:39:17.027Z,100.00
2022-08-17T05:41:46.006Z,100.00
2022-08-17T05:44:12.989Z,100.00
2022-08-17T05:46:43.680Z,100.00
2022-08-17T05:49:22.718Z,100.00
2022-08-17T05:51:52.229Z,100.00
2022-08-17T05:54:52.861Z,100.00
2022-08-17T05:57:52.925Z,100.00
2022-08-17T06:00:30.633Z,100.00
2022-08-17T06:03:22.549Z,100.00
2022-08-17T06:06:08.302Z,100.00
2022-08-17T06:08:56.839Z,100.00
2022-08-17T06:11:35.948Z,100.00
2022-08-17T06:14:16.460Z,100.00
2022-08-17T06:16:49.399Z,100.00
2022-08-17T06:19:40.679Z,100.00
2022-08-17T06:22:10.964Z,100.00
2022-08-17T06:25:12.878Z,100.00
2022-08-17T06:27:53.998Z,100.00
2022-08-17T06:30:22.123Z,100.00
2022-08-17T06:32:51.622Z,100.00
2022-08-17T06:35:44.515Z,99.35
2022-08-17T06:38:47.189Z,95.16
2022-08-17T06:41:26.919Z,94.36
2022-08-17T06:44:02.350Z,90.46
2022-08-17T06:46:42.749Z,89.25
2022-08-17T06:49:34.171Z,89.09
2022-08-17T06:52:45.571Z,85.67
2022-08-17T06:55:18.899Z,83.31
2022-08-17T06:58:02.163Z,78.31
2022-08-17T07:00:46.449Z,80.89
2022-08-17T07:03:38.221Z,77.17
2022-08-17T07:06:52.420Z,75.76
2022-08-17T07:09:23.524Z,75.54
2022-08-17T07:12:05.755Z,74.71
2022-08-17T07:14:38.129Z,71.09
2022-08-17T07:17:14.878Z,72.55
2022-08-17T07:19:45.564Z,74.28
2022-08-17T07:22:23.073Z,72.76
2022-08-17T07:24:59.745Z,72.14
2022-08-17T07:27:31.397Z,69.13
2022-08-17T07:30:10.809Z,67.49
2022-08-17T07:32:45.459Z,67.45
2022-08-17T07:35:17.154Z,63.57
2022-08-17T07:38:25.941Z,63.11
2022-08-17T07:41:06.067Z,62.77
2022-08-17T07:43:36.894Z,63.96
2022-08-17T07:46:34.651Z,60.22
2022-08-17T07:49:03.346Z,57.80
2022-08-17T07:51:43.347Z,60.26
2022-08-17T07:54:16.073Z,59.77
2022-08-17T07:56:44.802Z,61.82
2022-08-17T07:59:24.107Z,62.94
2022-08-17T08:01:58.073Z,59.13
2022-08-17T08:05:00.678Z,59.41
2022-08-17T08:07:37.554Z,58.14
2022-08-17T08:10:07.683Z,58.94
2022-08-17T08:13:01.435Z,57.98
2022-08-17T08:15:37.371Z,57.63
2022-08-17T08:18:19.351Z,52.45
2022-08-17T08:21:24.581Z,56.86
2022-08-17T08:24:00.199Z,55.07
2022-08-17T08:26:33.990Z,51.55
2022-08-17T08:29:18.502Z,52.15
2022-08-17T08:32:13.603Z,50.42
2022-08-17T08:35:01.194Z,51.25
2022-08-17T08:37:52.094Z,51.47
2022-08-17T08:40:49.265Z,49.26
2022-08-17T08:43:53.579Z,48.16
2022-08-17T08:46:45.189Z,48.00
2022-08-17T08:49:29.832Z,45.96
2022-08-17T08:52:22.855Z,45.78
2022-08-17T08:55:05.455Z,43.36
2022-08-17T08:57:36.683Z,46.00
2022-08-17T09:00:23.135Z,42.19
2022-08-17T09:03:04.532Z,41.92
2022-08-17T09:05:48.407Z,42.09
2022-08-17T09:08:32.725Z,42.31
2022-08-17T09:11:09.713Z,42.54
2022-08-17T09:13:46.696Z,40.16
2022-08-17T09:16:47.790Z,39.43
2022-08-17T09:19:30.183Z,39.40
2022-08-17T09:22:23.175Z,37.51
2022-08-17T09:24:57.379Z,35.09
2022-08-17T09:27:33.105Z,37.18
2022-08-17T09:30:04.960Z,35.74
2022-08-17T09:32:40.870Z,34.57
2022-08-17T09:35:22.917Z,32.39
2022-08-17T09:38:30.476Z,30.56
2022-08-17T09:40:59.193Z,31.58
2022-08-17T09:43:32.081Z,30.18
2022-08-17T09:46:16.105Z,30.67
2022-08-17T09:49:09.971Z,29.28
2022-08-17T09:51:52.328Z,29.63
2022-08-17T09:54:40.557Z,29.33
2022-08-17T09:57:47.436Z,29.29
2022-08-17T10:00:25.312Z,29.50
2022-08-17T10:03:04.596Z,30.41
2022-08-17T10:05:56.989Z,29.17
2022-08-17T10:08:52.108Z,29.42
2022-08-17T10:11:50.403Z,30.40
2022-08-17T10:14:37.824Z,29.97
2022-08-17T10:17:38.668Z,29.54
2022-08-17T10:20:14.653Z,29.51
2022-08-17T10:23:13.721Z,29.40
2022-08-17T10:26:13.056Z,28.92
2022-08-17T10:29:12.941Z,29.90
2022-08-17T10:31:45.836Z,30.58
2022-08-17T10:34:26.084Z,29.46
2022-08-17T10:37:02.643Z,29.08
2022-08-17T10:39:50.544Z,29.33
2022-08-17T10:42:46.299Z,29.27
2022-08-17T10:45:18.942Z,28.99
2022-08-17T10:48:04.743Z,28.82
2022-08-17T10:50:59.809Z,27.76
2022-08-17T10:53:32.739Z,27.34
2022-08-17T10:56:14.839Z,28.29
2022-08-17T10:58:54.151Z,26.23
2022-08-17T11:01:33.234Z,26.26
2022-08-17T11:04:28.995Z,26.34
2022-08-17T11:07:02.558Z,26.18
2022-08-17T11:10:13.505Z,26.24
2022-08-17T11:13:01.475Z,27.52
2022-08-17T11:15:41.438Z,24.78
2022-08-17T11:18:34.652Z,25.28
2022-08-17T11:21:10.054Z,25.15
2022-08-17T11:24:12.310Z,22.25
2022-08-17T11:26:46.926Z,21.39
2022-08-17T11:29:38.610Z,25.56
2022-08-17T11:32:14.235Z,24.01
2022-08-17T11:34:44.678Z,23.69
2022-08-17T11:37:41.929Z,25.38
2022-08-17T11:40:20.803Z,24.69
2022-08-17T11:43:15.689Z,24.09
2022-08-17T11:46:03.880Z,23.30
2022-08-17T11:49:18.378Z,22.42
2022-08-17T11:52:05.001Z,23.31
2022-08-17T11:54:41.938Z,22.70
2022-08-17T11:57:40.822Z,21.13
2022-08-17T12:00:28.934Z,21.27
2022-08-17T12:03:27.095Z,21.10
2022-08-17T12:06:04.458Z,22.46
2022-08-17T12:08:34.271Z,20.93
2022-08-17T12:11:06.522Z,21.39
2022-08-17T12:13:46.832Z,21.68
2022-08-17T12:16:21.222Z,21.92
2022-08-17T12:18:54.338Z,20.94
2022-08-17T12:21:28.099Z,21.84
2022-08-17T12:24:06.730Z,20.44
2022-08-17T12:26:36.337Z,20.27
2022-08-17T12:29:09.397Z,20.28
2022-08-17T12:31:51.854Z,19.99
2022-08-17T12:34:28.369Z,20.72
2022-08-17T12:37:20.889Z,18.81
2022-08-17T12:40:17.822Z,19.27
2022-08-17T12:43:18.144Z,19.27
2022-08-17T12:45:46.713Z,19.58
2022-08-17T12:48:21.607Z,19.51
2022-08-17T12:50:50.011Z,19.85
2022-08-17T12:53:21.601Z,19.43
2022-08-17T12:55:50.439Z,18.48
2022-08-17T12:58:22.582Z,19.57
2022-08-17T13:00:57.250Z,18.74
2022-08-17T13:03:29.887Z,19.59
2022-08-17T13:06:00.814Z,19.56
2022-08-17T13:08:48.246Z,18.05
2022-08-17T13:11:16.303Z,18.37
2022-08-17T13:14:07.130Z,17.82
2022-08-17T13:16:34.280Z,17.82
2022-08-17T13:19:15.584Z,17.96
2022-08-17T13:21:54.633Z,17.33
2022-08-17T13:24:26.084Z,18.47
2022-08-17T13:27:07.833Z,18.36
2022-08-17T13:29:45.268Z,18.12
2022-08-17T13:32:33.489Z,18.49
2022-08-17T13:35:12.154Z,18.29
2022-08-17T13:38:01.527Z,18.47
2022-08-17T13:40:37.592Z,17.68
2022-08-17T13:43:05.555Z,17.61
2022-08-17T13:45:40.689Z,17.41
2022-08-17T13:48:13.649Z,17.49
2022-08-17T13:51:06.789Z,17.43
2022-08-17T13:53:51.593Z,17.54
2022-08-17T13:56:38.655Z,17.16
2022-08-17T13:59:11.555Z,18.03
2022-08-17T14:01:53.375Z,18.37
2022-08-17T14:04:34.465Z,18.31
2022-08-17T14:07:27.692Z,18.76
2022-08-17T14:10:17.462Z,17.64
2022-08-17T14:12:46.211Z,17.62
2022-08-17T14:15:15.478Z,17.14
2022-08-17T14:17:42.284Z,17.38
2022-08-17T14:20:12.543Z,17.39
2022-08-17T14:22:49.254Z,19.13
2022-08-17T14:25:20.987Z,18.38
2022-08-17T14:27:54.064Z,18.71
2022-08-17T14:30:27.013Z,18.22
2022-08-17T14:32:58.360Z,16.91
2022-08-17T14:35:25.326Z,17.46
2022-08-17T14:37:53.203Z,16.93
2022-08-17T14:40:25.090Z,16.11
2022-08-17T14:42:54.124Z,16.23
2022-08-17T14:45:31.622Z,16.27
2022-08-17T14:47:59.514Z,16.42
2022-08-17T14:50:27.320Z,15.89
2022-08-17T14:52:58.209Z,15.62
2022-08-17T14:55:26.312Z,16.27
2022-08-17T14:57:53.300Z,17.65
2022-08-17T15:00:20.322Z,17.54
2022-08-17T15:02:53.881Z,16.50
2022-08-17T15:05:24.819Z,16.74
2022-08-17T15:07:52.942Z,16.80
2022-08-17T15:10:20.359Z,16.43
2022-08-17T15:12:47.243Z,17.64
2022-08-17T15:15:16.082Z,17.71
2022-08-17T15:17:46.042Z,17.07
2022-08-17T15:20:16.120Z,17.44
2022-08-17T15:22:45.032Z,17.91
2022-08-17T15:25:12.941Z,17.35
2022-08-17T15:27:40.539Z,17.27
2022-08-17T15:30:09.155Z,18.20
2022-08-17T15:32:38.336Z,18.56
2022-08-17T15:35:07.795Z,18.50
2022-08-17T15:37:36.529Z,18.84
2022-08-17T15:40:05.408Z,18.26
2022-08-17T15:42:32.550Z,19.36
2022-08-17T15:45:01.006Z,18.62
2022-08-17T15:47:27.787Z,18.61
2022-08-17T15:49:59.871Z,18.96
2022-08-17T15:52:29.833Z,18.80
2022-08-17T15:54:59.327Z,19.17
2022-08-17T15:57:27.146Z,21.22
2022-08-17T15:59:58.788Z,21.02
2022-08-17T16:03:46.438Z,22.14
2022-08-17T16:05:27.376Z,22.20
2022-08-17T16:07:55.885Z,22.10
2022-08-17T16:10:23.334Z,21.14
2022-08-17T16:13:03.089Z,20.93
2022-08-17T16:15:31.732Z,21.48
2022-08-17T16:17:58.873Z,21.65
2022-08-17T16:20:25.823Z,21.80
2022-08-17T16:22:53.134Z,21.42
2022-08-17T16:25:22.332Z,21.66
2022-08-17T16:27:53.737Z,21.07
2022-08-17T16:30:23.461Z,22.34
2022-08-17T16:32:53.135Z,21.99
2022-08-17T16:35:22.674Z,23.01
2022-08-17T16:37:49.619Z,22.43
2022-08-17T16:40:17.540Z,22.93
2022-08-17T16:42:48.540Z,23.91
2022-08-17T16:45:17.133Z,24.47
2022-08-17T16:47:45.136Z,25.08
2022-08-17T16:50:14.822Z,24.39
2022-08-17T16:52:42.075Z,26.92
2022-08-17T16:55:13.151Z,26.06
2022-08-17T16:57:46.128Z,26.35
2022-08-17T17:00:17.779Z,26.43
2022-08-17T17:02:47.860Z,26.55
2022-08-17T17:05:20.761Z,26.79
2022-08-17T17:07:53.510Z,26.60
2022-08-17T17:10:24.672Z,25.69
2022-08-17T17:13:02.209Z,25.89
2022-08-17T17:15:45.364Z,26.23
2022-08-17T17:18:14.881Z,27.37
2022-08-17T17:20:56.549Z,27.52
2022-08-17T17:23:39.131Z,27.49
2022-08-17T17:26:18.704Z,28.52
2022-08-17T17:28:56.318Z,28.46
2022-08-17T17:31:28.888Z,28.49
2022-08-17T17:34:00.598Z,31.94
2022-08-17T17:36:42.103Z,34.18
2022-08-17T17:39:46.079Z,33.70
2022-08-17T17:42:20.069Z,36.33
2022-08-17T17:45:00.101Z,35.34
2022-08-17T17:47:28.542Z,36.45
2022-08-17T17:49:55.939Z,39.51
2022-08-17T17:52:41.107Z,40.32
2022-08-17T17:55:26.280Z,40.43
2022-08-17T17:58:20.294Z,43.07
2022-08-17T18:01:17.582Z,44.33
2022-08-17T18:04:02.936Z,46.13
2022-08-17T18:07:00.386Z,44.46
2022-08-17T18:09:51.864Z,45.32
2022-08-17T18:12:54.300Z,48.04
2022-08-17T18:15:29.725Z,46.97
2022-08-17T18:18:16.234Z,49.76
2022-08-17T18:20:53.945Z,47.49
2022-08-17T18:23:27.907Z,47.67
2022-08-17T18:25:55.906Z,47.47
2022-08-17T18:28:28.054Z,47.69
2022-08-17T18:31:17.513Z,48.86
2022-08-17T18:33:48.668Z,49.73
2022-08-17T18:36:33.092Z,51.27
2022-08-17T18:39:21.152Z,50.79
2022-08-17T18:41:50.164Z,51.02
2022-08-17T18:44:35.680Z,50.27
2022-08-17T18:47:24.247Z,51.59
2022-08-17T18:49:58.451Z,51.98
2022-08-17T18:52:32.082Z,51.96
2022-08-17T18:55:14.333Z,53.28
2022-08-17T18:57:43.018Z,53.62
2022-08-17T19:00:18.515Z,57.09
2022-08-17T19:02:58.061Z,57.65
2022-08-17T19:05:41.165Z,58.07
2022-08-17T19:08:31.145Z,58.12
2022-08-17T19:11:21.529Z,58.98
2022-08-17T19:14:11.145Z,59.78
2022-08-17T19:16:54.366Z,62.25
2022-08-17T19:19:26.948Z,64.74
2022-08-17T19:22:08.519Z,64.68
2022-08-17T19:24:36.912Z,63.66
2022-08-17T19:27:21.528Z,65.10
2022-08-17T19:30:06.992Z,62.93
2022-08-17T19:32:36.314Z,63.49
2022-08-17T19:35:06.910Z,64.52
2022-08-17T19:37:37.353Z,66.07
2022-08-17T19:40:51.718Z,66.56
2022-08-17T19:43:57.580Z,68.08
2022-08-17T19:46:35.950Z,67.52
2022-08-17T19:49:32.869Z,69.85
2022-08-17T19:52:38.635Z,71.62
2022-08-17T19:55:24.265Z,69.58
2022-08-17T19:58:02.453Z,71.39
2022-08-17T20:00:31.427Z,77.33
2022-08-17T20:03:16.564Z,73.16
2022-08-17T20:06:14.503Z,71.54
2022-08-17T20:08:57.424Z,71.44
2022-08-17T20:11:42.072Z,74.37
2022-08-17T20:14:20.305Z,71.78
2022-08-17T20:16:47.469Z,69.03
2022-08-17T20:19:35.808Z,69.75
2022-08-17T20:22:52.191Z,68.63
2022-08-17T20:25:57.660Z,76.82
2022-08-17T20:28:31.214Z,76.63
2022-08-17T20:30:58.561Z,74.63
2022-08-17T20:33:32.930Z,77.04
2022-08-17T20:36:18.378Z,76.27
2022-08-17T20:38:56.765Z,77.91
2022-08-17T20:41:29.812Z,75.29
2022-08-17T20:43:56.804Z,74.34
2022-08-17T20:46:38.907Z,74.49
2022-08-17T20:49:14.929Z,74.55
2022-08-17T20:52:05.215Z,75.93
2022-08-17T20:54:54.460Z,76.19
2022-08-17T20:57:33.256Z,81.17
2022-08-17T21:00:17.846Z,81.55
2022-08-17T21:02:50.029Z,80.05
2022-08-17T21:05:32.600Z,79.63
2022-08-17T21:08:36.600Z,84.05
2022-08-17T21:12:14.085Z,80.64
2022-08-17T21:15:00.671Z,82.97
2022-08-17T21:17:50.621Z,83.59
2022-08-17T21:20:47.943Z,82.73
2022-08-17T21:23:23.742Z,82.94
2022-08-17T21:26:12.880Z,87.05
2022-08-17T21:29:29.638Z,83.78
2022-08-17T21:32:05.374Z,82.29
2022-08-17T21:34:35.618Z,87.75
2022-08-17T21:37:26.492Z,86.46
2022-08-17T21:40:31.202Z,85.90
2022-08-17T21:43:08.063Z,84.36
2022-08-17T21:45:39.022Z,83.68
2022-08-17T21:48:25.690Z,83.85
2022-08-17T21:51:01.185Z,84.15
2022-08-17T21:53:59.259Z,82.70
2022-08-17T21:56:29.051Z,85.00
2022-08-17T21:59:02.760Z,86.92
2022-08-17T22:01:35.801Z,86.70
2022-08-17T22:04:11.535Z,88.20
2022-08-17T22:06:56.760Z,88.06
2022-08-17T22:09:43.400Z,86.76
2022-08-17T22:12:16.602Z,87.67
2022-08-17T22:14:52.247Z,89.63
2022-08-17T22:17:22.782Z,89.08
2022-08-17T22:19:57.854Z,85.31
2022-08-17T22:22:26.843Z,86.69
2022-08-17T22:25:03.401Z,89.04
2022-08-17T22:27:49.396Z,88.12
2022-08-17T22:31:01.958Z,89.71
2022-08-17T22:33:31.678Z,88.87
2022-08-17T22:36:16.533Z,89.78
2022-08-17T22:38:43.883Z,89.58
2022-08-17T22:41:38.092Z,90.34
2022-08-17T22:44:14.273Z,89.07
2022-08-17T22:46:50.747Z,89.42
2022-08-17T22:49:29.330Z,88.36
2022-08-17T22:52:32.447Z,85.87
2022-08-17T22:55:27.543Z,85.42
2022-08-17T22:58:13.211Z,84.72
2022-08-17T23:03:53.273Z,87.13
2022-08-17T23:06:20.097Z,87.16
2022-08-17T23:08:54.812Z,88.09
2022-08-17T23:11:42.970Z,87.59
2022-08-17T23:14:16.708Z,87.78
2022-08-17T23:16:43.789Z,87.86
2022-08-17T23:19:13.382Z,87.18
2022-08-17T23:21:40.316Z,86.30
2022-08-17T23:24:09.012Z,87.70
2022-08-17T23:26:38.235Z,89.25
2022-08-17T23:29:06.797Z,92.01
2022-08-17T23:31:35.288Z,93.01
2022-08-17T23:34:04.090Z,94.22
2022-08-17T23:36:32.695Z,95.67
2022-08-17T23:38:59.450Z,94.68
2022-08-17T23:41:31.975Z,93.76
2022-08-17T23:44:00.527Z,94.28
2022-08-17T23:46:27.293Z,93.23
2022-08-17T23:48:54.263Z,92.35
2022-08-17T23:51:28.512Z,93.26
2022-08-17T23:54:07.211Z,94.26
2022-08-17T23:56:37.890Z,95.11
2022-08-17T23:59:05.163Z,94.61
